sensor_id;sensor_type;location;lat;lon;timestamp;pressure;altitude;pressure_sealevel;temperature;humidity
7058;BME280;3570;43.080;25.628;2022-09-17T00:01:55;-20004.84;;;18.98;100.00
7058;BME280;3570;43.080;25.628;2022-09-17T00:04:39;-20005.44;;;19.00;100.00
7058;BME280;3570;43.080;25.628;2022-09-17T00:07:23;-19994.25;;;18.61;100.00
7058;BME280;3570;43.080;25.628;2022-09-17T00:10:07;-19989.03;;;18.43;100.00
7058;BME280;3570;43.080;25.628;2022-09-17T00:12:52;-19990.19;;;18.47;100.00
7058;BME280;3570;43.080;25.628;2022-09-17T00:15:43;-20009.06;;;19.12;100.00
7058;BME280;3570;43.080;25.628;2022-09-17T00:18:28;-20002.97;;;18.91;100.00
7058;BME280;3570;43.080;25.628;2022-09-17T00:21:16;-20015.59;;;19.35;100.00
7058;BME280;3570;43.080;25.628;2022-09-17T00:24:03;-20036.31;;;20.07;100.00
7058;BME280;3570;43.080;25.628;2022-09-17T00:26:48;-20047.03;;;20.44;100.00
7058;BME280;3570;43.080;25.628;2022-09-17T00:29:32;-20060.53;;;20.91;100.00
7058;BME280;3570;43.080;25.628;2022-09-17T00:32:16;-20056.31;;;20.76;100.00
7058;BME280;3570;43.080;25.628;2022-09-17T00:35:00;-20071.69;;;21.29;100.00
7058;BME280;3570;43.080;25.628;2022-09-17T00:37:44;-20075.16;;;21.41;100.00
7058;BME280;3570;43.080;25.628;2022-09-17T00:40:28;-20083.25;;;21.70;100.00
7058;BME280;3570;43.080;25.628;2022-09-17T00:43:13;-20089.06;;;21.90;100.00
7058;BME280;3570;43.080;25.628;2022-09-17T00:45:58;-20082.81;;;21.68;100.00
7058;BME280;3570;43.080;25.628;2022-09-17T00:48:43;-20089.06;;;21.90;100.00
7058;BME280;3570;43.080;25.628;2022-09-17T00:51:33;-20091.38;;;21.98;100.00
7058;BME280;3570;43.080;25.628;2022-09-17T00:54:18;-20078.47;;;21.53;100.00
7058;BME280;3570;43.080;25.628;2022-09-17T00:57:03;-20052.41;;;20.63;100.00
7058;BME280;3570;43.080;25.628;2022-09-17T00:59:47;-20048.50;;;20.49;100.00
7058;BME280;3570;43.080;25.628;2022-09-17T01:02:31;-20057.19;;;20.79;100.00
7058;BME280;3570;43.080;25.628;2022-09-17T01:05:15;-20058.94;;;20.85;100.00
7058;BME280;3570;43.080;25.628;2022-09-17T01:17:45;-20065.59;;;21.08;100.00
7058;BME280;3570;43.080;25.628;2022-09-17T01:20:50;-20064.72;;;21.05;100.00
7058;BME280;3570;43.080;25.628;2022-09-17T01:30:15;-20067.03;;;21.13;100.00
7058;BME280;3570;43.080;25.628;2022-09-17T01:33:14;-20057.03;;;20.79;100.00
7058;BME280;3570;43.080;25.628;2022-09-17T01:39:21;-20035.31;;;20.03;100.00
7058;BME280;3570;43.080;25.628;2022-09-17T01:42:23;-20017.47;;;19.41;100.00
7058;BME280;3570;43.080;25.628;2022-09-17T01:45:24;-20028.50;;;19.80;100.00
7058;BME280;3570;43.080;25.628;2022-09-17T01:48:16;-20030.22;;;19.86;100.00
7058;BME280;3570;43.080;25.628;2022-09-17T01:51:06;-20017.75;;;19.42;100.00
7058;BME280;3570;43.080;25.628;2022-09-17T01:54:14;-20006.28;;;19.03;100.00
7058;BME280;3570;43.080;25.628;2022-09-17T01:57:01;-20000.34;;;18.82;100.00
7058;BME280;3570;43.080;25.628;2022-09-17T01:59:52;-20000.94;;;18.84;100.00
7058;BME280;3570;43.080;25.628;2022-09-17T02:02:43;-20010.78;;;19.18;100.00
7058;BME280;3570;43.080;25.628;2022-09-17T02:05:38;-20028.78;;;19.81;100.00
7058;BME280;3570;43.080;25.628;2022-09-17T02:08:25;-20030.22;;;19.86;100.00
7058;BME280;3570;43.080;25.628;2022-09-17T02:11:13;-20037.03;;;20.09;100.00
7058;BME280;3570;43.080;25.628;2022-09-17T02:14:03;-20054.59;;;20.70;100.00
7058;BME280;3570;43.080;25.628;2022-09-17T02:16:53;-20054.88;;;20.71;100.00
7058;BME280;3570;43.080;25.628;2022-09-17T02:19:40;-20053.28;;;20.66;100.00
7058;BME280;3570;43.080;25.628;2022-09-17T02:22:36;-20064.44;;;21.04;100.00
7058;BME280;3570;43.080;25.628;2022-09-17T02:25:27;-20072.41;;;21.32;100.00
7058;BME280;3570;43.080;25.628;2022-09-17T02:28:21;-20070.81;;;21.26;100.00
7058;BME280;3570;43.080;25.628;2022-09-17T02:31:08;-20066.75;;;21.12;100.00
7058;BME280;3570;43.080;25.628;2022-09-17T02:33:56;-20072.56;;;21.32;100.00
7058;BME280;3570;43.080;25.628;2022-09-17T02:36:44;-20071.09;;;21.27;100.00
7058;BME280;3570;43.080;25.628;2022-09-17T02:39:28;-20054.72;;;20.71;100.00
7058;BME280;3570;43.080;25.628;2022-09-17T02:45:31;-20033.72;;;19.98;100.00
7058;BME280;3570;43.080;25.628;2022-09-17T02:48:44;-20025.00;;;19.67;100.00
7058;BME280;3570;43.080;25.628;2022-09-17T02:51:50;-20016.91;;;19.39;100.00
7058;BME280;3570;43.080;25.628;2022-09-17T02:55:04;-20022.69;;;19.59;100.00
7058;BME280;3570;43.080;25.628;2022-09-17T02:58:17;-20035.44;;;20.04;100.00
7058;BME280;3570;43.080;25.628;2022-09-17T03:01:08;-20031.81;;;19.91;100.00
7058;BME280;3570;43.080;25.628;2022-09-17T03:03:56;-20047.19;;;20.44;100.00
7058;BME280;3570;43.080;25.628;2022-09-17T03:06:45;-20056.47;;;20.77;100.00
7058;BME280;3570;43.080;25.628;2022-09-17T03:09:30;-20062.84;;;20.99;100.00
7058;BME280;3570;43.080;25.628;2022-09-17T03:12:14;-20064.16;;;21.03;100.00
7058;BME280;3570;43.080;25.628;2022-09-17T03:14:58;-20068.94;;;21.20;100.00
7058;BME280;3570;43.080;25.628;2022-09-17T03:17:42;-20065.75;;;21.09;100.00
7058;BME280;3570;43.080;25.628;2022-09-17T03:20:26;-20042.13;;;20.27;100.00
7058;BME280;3570;43.080;25.628;2022-09-17T03:23:10;-20029.50;;;19.83;100.00
7058;BME280;3570;43.080;25.628;2022-09-17T03:25:54;-20009.34;;;19.13;100.00
7058;BME280;3570;43.080;25.628;2022-09-17T03:28:39;-20010.22;;;19.16;100.00
7058;BME280;3570;43.080;25.628;2022-09-17T03:31:23;-20023.13;;;19.61;100.00
7058;BME280;3570;43.080;25.628;2022-09-17T03:34:07;-20037.19;;;20.10;100.00
7058;BME280;3570;43.080;25.628;2022-09-17T03:36:51;-20042.25;;;20.27;100.00
7058;BME280;3570;43.080;25.628;2022-09-17T03:39:35;-20050.97;;;20.57;100.00
7058;BME280;3570;43.080;25.628;2022-09-17T03:42:18;-20056.03;;;20.75;100.00
7058;BME280;3570;43.080;25.628;2022-09-17T03:45:03;-20059.50;;;20.87;100.00
7058;BME280;3570;43.080;25.628;2022-09-17T03:47:47;-20055.31;;;20.73;100.00
7058;BME280;3570;43.080;25.628;2022-09-17T03:50:31;-20040.81;;;20.22;100.00
7058;BME280;3570;43.080;25.628;2022-09-17T03:53:16;-20032.69;;;19.94;100.00
7058;BME280;3570;43.080;25.628;2022-09-17T03:56:01;-20041.25;;;20.24;100.00
7058;BME280;3570;43.080;25.628;2022-09-17T03:58:45;-20048.50;;;20.49;100.00
7058;BME280;3570;43.080;25.628;2022-09-17T04:01:29;-20047.91;;;20.47;100.00
7058;BME280;3570;43.080;25.628;2022-09-17T04:04:13;-20028.94;;;19.81;100.00
7058;BME280;3570;43.080;25.628;2022-09-17T04:06:57;-20019.50;;;19.48;100.00
7058;BME280;3570;43.080;25.628;2022-09-17T04:09:41;-20019.50;;;19.48;100.00
7058;BME280;3570;43.080;25.628;2022-09-17T04:12:25;-20019.78;;;19.49;100.00
7058;BME280;3570;43.080;25.628;2022-09-17T04:15:09;-20038.22;;;20.13;100.00
7058;BME280;3570;43.080;25.628;2022-09-17T04:17:54;-20034.00;;;19.99;100.00
7058;BME280;3570;43.080;25.628;2022-09-17T04:20:40;-20039.66;;;20.18;100.00
7058;BME280;3570;43.080;25.628;2022-09-17T04:23:25;-20042.56;;;20.28;100.00
7058;BME280;3570;43.080;25.628;2022-09-17T04:26:09;-20054.72;;;20.71;100.00
7058;BME280;3570;43.080;25.628;2022-09-17T04:28:54;-20057.78;;;20.81;100.00
7058;BME280;3570;43.080;25.628;2022-09-17T04:31:38;-20074.13;;;21.38;100.00
7058;BME280;3570;43.080;25.628;2022-09-17T04:34:23;-20070.66;;;21.26;100.00
7058;BME280;3570;43.080;25.628;2022-09-17T04:37:07;-20070.09;;;21.24;100.00
7058;BME280;3570;43.080;25.628;2022-09-17T04:39:51;-20069.38;;;21.21;100.00
7058;BME280;3570;43.080;25.628;2022-09-17T04:42:35;-20060.53;;;20.91;100.00
7058;BME280;3570;43.080;25.628;2022-09-17T04:45:19;-20052.41;;;20.63;100.00
7058;BME280;3570;43.080;25.628;2022-09-17T04:48:03;-20055.59;;;20.74;100.00
7058;BME280;3570;43.080;25.628;2022-09-17T04:50:48;-20056.19;;;20.76;100.00
7058;BME280;3570;43.080;25.628;2022-09-17T04:53:32;-20063.28;;;21.00;100.00
7058;BME280;3570;43.080;25.628;2022-09-17T04:56:16;-20072.97;;;21.34;100.00
7058;BME280;3570;43.080;25.628;2022-09-17T04:58:59;-20080.22;;;21.59;100.00
7058;BME280;3570;43.080;25.628;2022-09-17T05:01:43;-20081.53;;;21.64;100.00
7058;BME280;3570;43.080;25.628;2022-09-17T05:04:27;-20094.69;;;22.09;100.00
7058;BME280;3570;43.080;25.628;2022-09-17T05:07:11;-20097.75;;;22.20;100.00
7058;BME280;3570;43.080;25.628;2022-09-17T05:09:55;-20099.19;;;22.25;100.00
7058;BME280;3570;43.080;25.628;2022-09-17T05:12:39;-20103.94;;;22.41;100.00
7058;BME280;3570;43.080;25.628;2022-09-17T05:15:24;-20107.13;;;22.53;100.00
7058;BME280;3570;43.080;25.628;2022-09-17T05:18:08;-20112.78;;;22.72;100.00
7058;BME280;3570;43.080;25.628;2022-09-17T05:20:52;-20116.53;;;22.85;100.00
7058;BME280;3570;43.080;25.628;2022-09-17T05:23:36;-20123.19;;;23.08;100.00
7058;BME280;3570;43.080;25.628;2022-09-17T05:26:20;-20122.03;;;23.04;100.00
7058;BME280;3570;43.080;25.628;2022-09-17T05:29:04;-20122.03;;;23.04;100.00
7058;BME280;3570;43.080;25.628;2022-09-17T05:31:48;-20117.25;;;22.88;100.00
7058;BME280;3570;43.080;25.628;2022-09-17T05:34:32;-20127.25;;;23.22;100.00
7058;BME280;3570;43.080;25.628;2022-09-17T05:37:16;-20126.81;;;23.21;100.00
7058;BME280;3570;43.080;25.628;2022-09-17T05:40:02;-20125.06;;;23.15;100.00
7058;BME280;3570;43.080;25.628;2022-09-17T05:42:46;-20137.38;;;23.58;100.00
7058;BME280;3570;43.080;25.628;2022-09-17T05:45:32;-20141.13;;;23.71;100.00
7058;BME280;3570;43.080;25.628;2022-09-17T05:48:16;-20151.22;;;24.06;100.00
7058;BME280;3570;43.080;25.628;2022-09-17T05:51:00;-20158.44;;;24.31;100.00
7058;BME280;3570;43.080;25.628;2022-09-17T05:53:44;-20162.06;;;24.44;100.00
7058;BME280;3570;43.080;25.628;2022-09-17T05:56:28;-20160.91;;;24.40;100.00
7058;BME280;3570;43.080;25.628;2022-09-17T05:59:12;-20165.97;;;24.57;100.00
7058;BME280;3570;43.080;25.628;2022-09-17T06:01:58;-20169.56;;;24.70;100.00
7058;BME280;3570;43.080;25.628;2022-09-17T06:04:42;-20158.31;;;24.31;100.00
7058;BME280;3570;43.080;25.628;2022-09-17T06:07:26;-20165.09;;;24.54;100.00
7058;BME280;3570;43.080;25.628;2022-09-17T06:10:11;-20167.13;;;24.61;100.00
7058;BME280;3570;43.080;25.628;2022-09-17T06:12:56;-20168.69;;;24.67;100.00
7058;BME280;3570;43.080;25.628;2022-09-17T06:15:40;-20166.25;;;24.58;100.00
7058;BME280;3570;43.080;25.628;2022-09-17T06:18:24;-20178.66;;;25.01;98.88
7058;BME280;3570;43.080;25.628;2022-09-17T06:21:10;-20185.72;;;25.26;98.33
7058;BME280;3570;43.080;25.628;2022-09-17T06:23:54;-20192.81;;;25.51;95.53
7058;BME280;3570;43.080;25.628;2022-09-17T06:26:38;-20192.38;;;25.49;95.28
7058;BME280;3570;43.080;25.628;2022-09-17T06:29:23;-20215.28;;;26.29;93.18
7058;BME280;3570;43.080;25.628;2022-09-17T06:32:08;-20221.94;;;26.52;93.67
7058;BME280;3570;43.080;25.628;2022-09-17T06:34:55;-20223.22;;;26.57;93.44
7058;BME280;3570;43.080;25.628;2022-09-17T06:37:40;-20225.09;;;26.63;95.29
7058;BME280;3570;43.080;25.628;2022-09-17T06:40:24;-20227.69;;;26.72;94.47
7058;BME280;3570;43.080;25.628;2022-09-17T06:43:08;-20232.72;;;26.90;94.21
7058;BME280;3570;43.080;25.628;2022-09-17T06:45:56;-20241.53;;;27.21;92.35
7058;BME280;3570;43.080;25.628;2022-09-17T06:48:40;-20247.56;;;27.42;89.01
7058;BME280;3570;43.080;25.628;2022-09-17T06:51:24;-20254.63;;;27.66;88.42
7058;BME280;3570;43.080;25.628;2022-09-17T06:54:08;-20260.53;;;27.87;85.90
7058;BME280;3570;43.080;25.628;2022-09-17T06:56:53;-20266.72;;;28.09;84.65
7058;BME280;3570;43.080;25.628;2022-09-17T06:59:37;-20262.41;;;27.94;82.16
7058;BME280;3570;43.080;25.628;2022-09-17T07:02:20;-20261.97;;;27.92;82.48
7058;BME280;3570;43.080;25.628;2022-09-17T07:05:05;-20251.88;;;27.57;79.54
7058;BME280;3570;43.080;25.628;2022-09-17T07:07:49;-20246.13;;;27.37;78.37
7058;BME280;3570;43.080;25.628;2022-09-17T07:10:33;-20257.78;;;27.77;78.34
7058;BME280;3570;43.080;25.628;2022-09-17T07:13:17;-20260.66;;;27.87;81.64
7058;BME280;3570;43.080;25.628;2022-09-17T07:16:02;-20254.91;;;27.67;82.42
7058;BME280;3570;43.080;25.628;2022-09-17T07:18:47;-20264.84;;;28.02;82.56
7058;BME280;3570;43.080;25.628;2022-09-17T07:21:31;-20262.09;;;27.92;82.68
7058;BME280;3570;43.080;25.628;2022-09-17T07:24:15;-20265.13;;;28.03;81.89
7058;BME280;3570;43.080;25.628;2022-09-17T07:26:59;-20270.16;;;28.21;81.80
7058;BME280;3570;43.080;25.628;2022-09-17T07:29:44;-20276.63;;;28.43;81.12
7058;BME280;3570;43.080;25.628;2022-09-17T07:32:29;-20277.50;;;28.46;78.07
7058;BME280;3570;43.080;25.628;2022-09-17T07:35:14;-20276.19;;;28.42;78.38
7058;BME280;3570;43.080;25.628;2022-09-17T07:37:58;-20277.78;;;28.47;77.26
7058;BME280;3570;43.080;25.628;2022-09-17T07:40:42;-20286.84;;;28.79;77.58
7058;BME280;3570;43.080;25.628;2022-09-17T07:43:28;-20283.69;;;28.68;76.04
7058;BME280;3570;43.080;25.628;2022-09-17T07:46:17;-20272.75;;;28.30;76.18
7058;BME280;3570;43.080;25.628;2022-09-17T07:49:01;-20268.59;;;28.15;77.88
7058;BME280;3570;43.080;25.628;2022-09-17T07:51:45;-20273.47;;;28.32;77.32
7058;BME280;3570;43.080;25.628;2022-09-17T07:54:29;-20276.06;;;28.41;78.22
7058;BME280;3570;43.080;25.628;2022-09-17T07:57:13;-20277.50;;;28.46;77.91
7058;BME280;3570;43.080;25.628;2022-09-17T07:59:57;-20285.25;;;28.73;75.47
7058;BME280;3570;43.080;25.628;2022-09-17T08:02:41;-20291.31;;;28.95;75.98
7058;BME280;3570;43.080;25.628;2022-09-17T08:05:25;-20306.38;;;29.47;76.27
7058;BME280;3570;43.080;25.628;2022-09-17T08:08:10;-20317.31;;;29.86;72.11
7058;BME280;3570;43.080;25.628;2022-09-17T08:10:59;-20323.19;;;30.06;72.21
7058;BME280;3570;43.080;25.628;2022-09-17T08:13:47;-20335.53;;;30.49;70.92
7058;BME280;3570;43.080;25.628;2022-09-17T08:16:32;-20336.53;;;30.53;70.43
7058;BME280;3570;43.080;25.628;2022-09-17T08:19:16;-20342.16;;;30.73;69.60
7058;BME280;3570;43.080;25.628;2022-09-17T08:22:01;-20336.41;;;30.52;68.54
7058;BME280;3570;43.080;25.628;2022-09-17T08:24:45;-20335.25;;;30.48;69.49
7058;BME280;3570;43.080;25.628;2022-09-17T08:27:31;-20339.00;;;30.62;65.04
7058;BME280;3570;43.080;25.628;2022-09-17T08:30:17;-20329.09;;;30.27;61.71
7058;BME280;3570;43.080;25.628;2022-09-17T08:33:00;-20319.03;;;29.92;61.50
7058;BME280;3570;43.080;25.628;2022-09-17T08:35:54;-20315.00;;;29.78;64.00
7058;BME280;3570;43.080;25.628;2022-09-17T08:38:42;-20305.38;;;29.44;64.35
7058;BME280;3570;43.080;25.628;2022-09-17T08:41:36;-20318.31;;;29.89;66.71
7058;BME280;3570;43.080;25.628;2022-09-17T08:44:25;-20327.78;;;30.22;66.24
7058;BME280;3570;43.080;25.628;2022-09-17T08:47:25;-20326.78;;;30.19;61.24
7058;BME280;3570;43.080;25.628;2022-09-17T08:50:16;-20350.59;;;31.02;66.09
7058;BME280;3570;43.080;25.628;2022-09-17T08:56:17;-20349.03;;;30.97;65.55
7058;BME280;3570;43.080;25.628;2022-09-17T08:59:03;-20341.84;;;30.72;66.72
7058;BME280;3570;43.080;25.628;2022-09-17T09:05:11;-20438.53;;;34.11;54.58
7058;BME280;3570;43.080;25.628;2022-09-17T09:08:32;-20484.94;;;35.74;48.09
7058;BME280;3570;43.080;25.628;2022-09-17T09:11:24;-20459.38;;;34.84;43.17
7058;BME280;3570;43.080;25.628;2022-09-17T09:14:12;-20468.25;;;35.16;41.39
7058;BME280;3570;43.080;25.628;2022-09-17T09:17:05;-20491.78;;;35.99;40.83
7058;BME280;3570;43.080;25.628;2022-09-17T09:19:50;-20472.38;;;35.30;40.59
7058;BME280;3570;43.080;25.628;2022-09-17T09:22:48;-20457.38;;;34.77;41.91
7058;BME280;3570;43.080;25.628;2022-09-17T09:25:42;-20439.97;;;34.16;46.26
7058;BME280;3570;43.080;25.628;2022-09-17T09:31:39;-20460.25;;;34.87;40.31
7058;BME280;3570;43.080;25.628;2022-09-17T09:34:28;-20495.50;;;36.12;37.27
7058;BME280;3570;43.080;25.628;2022-09-17T09:37:38;-20448.25;;;34.45;36.83
7058;BME280;3570;43.080;25.628;2022-09-17T09:40:43;-20404.63;;;32.92;39.47
7058;BME280;3570;43.080;25.628;2022-09-17T09:59:41;-20408.06;;;33.04;39.30
7058;BME280;3570;43.080;25.628;2022-09-17T10:02:26;-20408.06;;;33.04;39.60
7058;BME280;3570;43.080;25.628;2022-09-17T10:05:10;-20414.50;;;33.26;39.38
7058;BME280;3570;43.080;25.628;2022-09-17T10:07:55;-20418.38;;;33.40;37.58
7058;BME280;3570;43.080;25.628;2022-09-17T10:13:40;-20406.91;;;33.00;39.25
7058;BME280;3570;43.080;25.628;2022-09-17T10:16:26;-20409.22;;;33.08;36.68
7058;BME280;3570;43.080;25.628;2022-09-17T10:19:18;-20418.94;;;33.42;36.40
7058;BME280;3570;43.080;25.628;2022-09-17T10:22:28;-20414.22;;;33.25;34.88
7058;BME280;3570;43.080;25.628;2022-09-17T10:34:31;-20350.75;;;31.03;40.05
7058;BME280;3570;43.080;25.628;2022-09-17T10:37:34;-20367.81;;;31.63;38.50
7058;BME280;3570;43.080;25.628;2022-09-17T10:43:22;-20411.06;;;33.14;35.11
7058;BME280;3570;43.080;25.628;2022-09-17T10:46:22;-20390.59;;;32.42;36.67
7058;BME280;3570;43.080;25.628;2022-09-17T10:49:13;-20364.66;;;31.52;37.49
7058;BME280;3570;43.080;25.628;2022-09-17T10:52:12;-20344.28;;;30.80;40.17
7058;BME280;3570;43.080;25.628;2022-09-17T11:10:22;-20303.38;;;29.37;43.88
7058;BME280;3570;43.080;25.628;2022-09-17T11:26:13;-20152.97;;;24.12;87.94
7058;BME280;3570;43.080;25.628;2022-09-17T11:35:17;-20089.06;;;21.90;100.00
7058;BME280;3570;43.080;25.628;2022-09-17T11:38:17;-20083.25;;;21.70;100.00
7058;BME280;3570;43.080;25.628;2022-09-17T11:44:19;-20094.56;;;22.09;100.00
7058;BME280;3570;43.080;25.628;2022-09-17T11:47:13;-20098.88;;;22.24;100.00
7058;BME280;3570;43.080;25.628;2022-09-17T11:50:19;-20106.56;;;22.51;100.00
7058;BME280;3570;43.080;25.628;2022-09-17T11:53:12;-20103.53;;;22.40;100.00
7058;BME280;3570;43.080;25.628;2022-09-17T11:56:24;-20105.84;;;22.48;100.00
7058;BME280;3570;43.080;25.628;2022-09-17T11:59:19;-20092.53;;;22.02;100.00
7058;BME280;3570;43.080;25.628;2022-09-17T12:05:27;-20069.66;;;21.22;100.00
7058;BME280;3570;43.080;25.628;2022-09-17T12:08:56;-20047.91;;;20.47;100.00
7058;BME280;3570;43.080;25.628;2022-09-17T12:12:04;-20024.00;;;19.64;100.00
7058;BME280;3570;43.080;25.628;2022-09-17T12:14:56;-20013.41;;;19.27;100.00
7058;BME280;3570;43.080;25.628;2022-09-17T12:20:39;-20006.16;;;19.02;100.00
7058;BME280;3570;43.080;25.628;2022-09-17T12:26:48;-20006.28;;;19.03;100.00
7058;BME280;3570;43.080;25.628;2022-09-17T12:44:45;-20078.19;;;21.52;100.00
7058;BME280;3570;43.080;25.628;2022-09-17T12:59:18;-20077.63;;;21.50;100.00
7058;BME280;3570;43.080;25.628;2022-09-17T13:02:32;-20112.50;;;22.71;100.00
7058;BME280;3570;43.080;25.628;2022-09-17T13:08:52;-20154.41;;;24.17;100.00
7058;BME280;3570;43.080;25.628;2022-09-17T13:11:55;-20171.16;;;24.75;100.00
7058;BME280;3570;43.080;25.628;2022-09-17T13:15:01;-20193.09;;;25.52;100.00
7058;BME280;3570;43.080;25.628;2022-09-17T13:17:57;-20193.97;;;25.55;100.00
7058;BME280;3570;43.080;25.628;2022-09-17T13:23:39;-20178.66;;;25.01;100.00
7058;BME280;3570;43.080;25.628;2022-09-17T13:26:35;-20170.59;;;24.73;100.00
7058;BME280;3570;43.080;25.628;2022-09-17T13:38:03;-20182.41;;;25.14;100.00
7058;BME280;3570;43.080;25.628;2022-09-17T13:40:47;-20208.09;;;26.04;100.00
7058;BME280;3570;43.080;25.628;2022-09-17T13:43:31;-20244.09;;;27.30;100.00
7058;BME280;3570;43.080;25.628;2022-09-17T13:46:21;-20316.88;;;29.84;100.00
7058;BME280;3570;43.080;25.628;2022-09-17T13:49:14;-20379.28;;;32.03;76.90
7058;BME280;3570;43.080;25.628;2022-09-17T13:51:59;-20419.94;;;33.46;66.73
7058;BME280;3570;43.080;25.628;2022-09-17T13:54:43;-20389.88;;;32.40;65.23
7058;BME280;3570;43.080;25.628;2022-09-17T13:57:30;-20334.69;;;30.46;74.62
7058;BME280;3570;43.080;25.628;2022-09-17T14:09:44;-20253.91;;;27.64;94.53
7058;BME280;3570;43.080;25.628;2022-09-17T14:15:36;-20273.31;;;28.32;86.67
7058;BME280;3570;43.080;25.628;2022-09-17T14:18:37;-20259.94;;;27.85;88.51
7058;BME280;3570;43.080;25.628;2022-09-17T14:21:31;-20246.13;;;27.37;90.95
7058;BME280;3570;43.080;25.628;2022-09-17T14:24:23;-20232.88;;;26.90;96.65
7058;BME280;3570;43.080;25.628;2022-09-17T14:33:12;-20359.34;;;31.33;72.31
7058;BME280;3570;43.080;25.628;2022-09-17T14:36:07;-20386.88;;;32.29;68.09
7058;BME280;3570;43.080;25.628;2022-09-17T14:38:55;-20415.50;;;33.30;64.81
7058;BME280;3570;43.080;25.628;2022-09-17T14:41:41;-20409.50;;;33.09;62.72
7058;BME280;3570;43.080;25.628;2022-09-17T14:44:27;-20373.69;;;31.83;68.47
7058;BME280;3570;43.080;25.628;2022-09-17T14:47:17;-20347.88;;;30.93;72.27
7058;BME280;3570;43.080;25.628;2022-09-17T14:50:35;-20327.66;;;30.22;74.33
7058;BME280;3570;43.080;25.628;2022-09-17T14:53:19;-20349.19;;;30.97;70.85
7058;BME280;3570;43.080;25.628;2022-09-17T14:56:04;-20334.69;;;30.46;73.14
7058;BME280;3570;43.080;25.628;2022-09-17T14:58:51;-20313.72;;;29.73;77.82
7058;BME280;3570;43.080;25.628;2022-09-17T15:01:36;-20264.56;;;28.01;85.71
7058;BME280;3570;43.080;25.628;2022-09-17T15:04:23;-20242.25;;;27.23;90.08
7058;BME280;3570;43.080;25.628;2022-09-17T15:07:11;-20210.69;;;26.13;100.00
7058;BME280;3570;43.080;25.628;2022-09-17T15:10:11;-20189.63;;;25.40;100.00
7058;BME280;3570;43.080;25.628;2022-09-17T15:12:56;-20181.13;;;25.10;100.00
7058;BME280;3570;43.080;25.628;2022-09-17T15:15:50;-20171.75;;;24.77;100.00
7058;BME280;3570;43.080;25.628;2022-09-17T15:18:47;-20156.56;;;24.24;100.00
7058;BME280;3570;43.080;25.628;2022-09-17T15:27:41;-20150.06;;;24.02;100.00
7058;BME280;3570;43.080;25.628;2022-09-17T15:30:26;-20142.41;;;23.75;100.00
7058;BME280;3570;43.080;25.628;2022-09-17T15:33:10;-20134.75;;;23.49;100.00
7058;BME280;3570;43.080;25.628;2022-09-17T15:36:13;-20118.84;;;22.93;100.00
7058;BME280;3570;43.080;25.628;2022-09-17T15:38:59;-20115.97;;;22.83;100.00
7058;BME280;3570;43.080;25.628;2022-09-17T15:41:43;-20114.94;;;22.80;100.00
7058;BME280;3570;43.080;25.628;2022-09-17T15:44:37;-20115.38;;;22.81;100.00
7058;BME280;3570;43.080;25.628;2022-09-17T15:47:50;-20109.88;;;22.62;100.00
7058;BME280;3570;43.080;25.628;2022-09-17T15:50:49;-20109.59;;;22.61;100.00
7058;BME280;3570;43.080;25.628;2022-09-17T15:53:35;-20100.47;;;22.29;100.00
7058;BME280;3570;43.080;25.628;2022-09-17T15:56:27;-20097.16;;;22.18;100.00
7058;BME280;3570;43.080;25.628;2022-09-17T16:02:02;-20093.09;;;22.04;100.00
7058;BME280;3570;43.080;25.628;2022-09-17T16:04:48;-20092.25;;;22.01;100.00
7058;BME280;3570;43.080;25.628;2022-09-17T16:07:36;-20087.75;;;21.85;100.00
7058;BME280;3570;43.080;25.628;2022-09-17T16:10:22;-20077.75;;;21.50;100.00
7058;BME280;3570;43.080;25.628;2022-09-17T16:13:06;-20081.66;;;21.64;100.00
7058;BME280;3570;43.080;25.628;2022-09-17T16:15:50;-20081.38;;;21.63;100.00
7058;BME280;3570;43.080;25.628;2022-09-17T16:18:33;-20082.41;;;21.67;100.00
7058;BME280;3570;43.080;25.628;2022-09-17T16:21:18;-20080.38;;;21.60;100.00
7058;BME280;3570;43.080;25.628;2022-09-17T16:24:02;-20078.78;;;21.54;100.00
7058;BME280;3570;43.080;25.628;2022-09-17T16:26:46;-20070.53;;;21.25;100.00
7058;BME280;3570;43.080;25.628;2022-09-17T16:29:30;-20076.31;;;21.45;100.00
7058;BME280;3570;43.080;25.628;2022-09-17T16:32:14;-20081.38;;;21.63;100.00
7058;BME280;3570;43.080;25.628;2022-09-17T16:34:58;-20101.63;;;22.33;100.00
7058;BME280;3570;43.080;25.628;2022-09-17T16:37:42;-20109.31;;;22.60;100.00
7058;BME280;3570;43.080;25.628;2022-09-17T16:40:26;-20116.09;;;22.84;100.00
7058;BME280;3570;43.080;25.628;2022-09-17T16:43:11;-20115.97;;;22.83;100.00
7058;BME280;3570;43.080;25.628;2022-09-17T16:46:03;-20110.31;;;22.64;100.00
7058;BME280;3570;43.080;25.628;2022-09-17T16:48:50;-20109.88;;;22.62;100.00
7058;BME280;3570;43.080;25.628;2022-09-17T16:51:35;-20097.00;;;22.17;100.00
7058;BME280;3570;43.080;25.628;2022-09-17T16:54:19;-20090.50;;;21.95;100.00
7058;BME280;3570;43.080;25.628;2022-09-17T16:57:03;-20083.13;;;21.69;100.00
7058;BME280;3570;43.080;25.628;2022-09-17T16:59:47;-20080.50;;;21.60;100.00
7058;BME280;3570;43.080;25.628;2022-09-17T17:02:32;-20072.69;;;21.33;100.00
7058;BME280;3570;43.080;25.628;2022-09-17T17:05:15;-20082.97;;;21.69;100.00
7058;BME280;3570;43.080;25.628;2022-09-17T17:08:00;-20086.44;;;21.81;100.00
7058;BME280;3570;43.080;25.628;2022-09-17T17:10:48;-20084.13;;;21.73;100.00
7058;BME280;3570;43.080;25.628;2022-09-17T17:13:33;-20072.41;;;21.32;100.00
7058;BME280;3570;43.080;25.628;2022-09-17T17:16:17;-20065.59;;;21.08;100.00
7058;BME280;3570;43.080;25.628;2022-09-17T17:19:01;-20060.38;;;20.90;100.00
7058;BME280;3570;43.080;25.628;2022-09-17T17:21:48;-20048.50;;;20.49;100.00
7058;BME280;3570;43.080;25.628;2022-09-17T17:24:33;-20045.03;;;20.37;100.00
7058;BME280;3570;43.080;25.628;2022-09-17T17:27:17;-20045.31;;;20.38;100.00
7058;BME280;3570;43.080;25.628;2022-09-17T17:30:03;-20041.84;;;20.26;100.00
7058;BME280;3570;43.080;25.628;2022-09-17T17:32:50;-20032.69;;;19.94;100.00
7058;BME280;3570;43.080;25.628;2022-09-17T17:35:37;-20037.34;;;20.10;100.00
7058;BME280;3570;43.080;25.628;2022-09-17T17:38:21;-20033.56;;;19.97;100.00
7058;BME280;3570;43.080;25.628;2022-09-17T17:41:13;-20034.28;;;20.00;100.00
7058;BME280;3570;43.080;25.628;2022-09-17T17:43:57;-20039.50;;;20.18;100.00